Hazel Green, Kentucky
Current Conditions -  °F | °C
As of 12:53 PM on Monday 26 Jan 2015 (Local Time) from KJKL Reporting Station
Haze Haze  
Wind Chill: 13°   Ceiling: 600
Heat Index: 24°   Visibility: 5mi
Dew Point: 21°   Wind: 12mph
Humidity: 88%   Direction: 270°W
Pressure: 29.83"   Gusts: 20mph
Location:  37.8°N, 83.42°W
Report Text: KJKL 261753Z AUTO 27010G17KT 5SM BR OVC006 M04/M06 A2983 RMK AO2 SNE15 SLP111 P0000 60002 I6000 T10441061 10017 21044 50001
Loading
Personal Weather Stations






























Interactive Weather Map New forecast layout! Learn more

10-Day Weather Forecast

Advertisements
Track Severe Weather on mobile